sensor_id;sensor_type;location;lat;lon;timestamp;P1;durP1;ratioP1;P2;durP2;ratioP2
38162;SDS011;23977;53.078;18.248;2023-08-01T00:00:40;6.22;;;2.95;;
38162;SDS011;23977;53.078;18.248;2023-08-01T00:03:25;6.60;;;3.17;;
38162;SDS011;23977;53.078;18.248;2023-08-01T00:05:50;6.05;;;2.97;;
38162;SDS011;23977;53.078;18.248;2023-08-01T00:08:16;5.47;;;3.00;;
38162;SDS011;23977;53.078;18.248;2023-08-01T00:10:41;7.25;;;3.60;;
38162;SDS011;23977;53.078;18.248;2023-08-01T00:13:07;5.80;;;3.03;;
38162;SDS011;23977;53.078;18.248;2023-08-01T00:15:34;5.28;;;2.90;;
38162;SDS011;23977;53.078;18.248;2023-08-01T00:18:00;4.32;;;2.83;;
38162;SDS011;23977;53.078;18.248;2023-08-01T00:20:25;5.45;;;3.10;;
38162;SDS011;23977;53.078;18.248;2023-08-01T00:22:51;5.05;;;2.97;;
38162;SDS011;23977;53.078;18.248;2023-08-01T00:25:17;5.25;;;2.60;;
38162;SDS011;23977;53.078;18.248;2023-08-01T00:27:43;5.00;;;2.88;;
38162;SDS011;23977;53.078;18.248;2023-08-01T00:30:09;5.97;;;2.83;;
38162;SDS011;23977;53.078;18.248;2023-08-01T00:32:35;4.93;;;2.60;;
38162;SDS011;23977;53.078;18.248;2023-08-01T00:35:01;6.93;;;2.70;;
38162;SDS011;23977;53.078;18.248;2023-08-01T00:37:26;4.38;;;2.72;;
38162;SDS011;23977;53.078;18.248;2023-08-01T00:39:52;6.53;;;2.58;;
38162;SDS011;23977;53.078;18.248;2023-08-01T00:42:18;4.32;;;2.58;;
38162;SDS011;23977;53.078;18.248;2023-08-01T00:44:43;5.82;;;3.00;;
38162;SDS011;23977;53.078;18.248;2023-08-01T00:47:09;5.78;;;2.70;;
38162;SDS011;23977;53.078;18.248;2023-08-01T00:49:35;6.18;;;2.63;;
38162;SDS011;23977;53.078;18.248;2023-08-01T00:52:01;5.72;;;2.97;;
38162;SDS011;23977;53.078;18.248;2023-08-01T00:54:27;4.07;;;2.58;;
38162;SDS011;23977;53.078;18.248;2023-08-01T00:56:52;5.07;;;2.80;;
38162;SDS011;23977;53.078;18.248;2023-08-01T00:59:18;6.63;;;2.72;;
38162;SDS011;23977;53.078;18.248;2023-08-01T01:01:44;5.85;;;2.75;;
38162;SDS011;23977;53.078;18.248;2023-08-01T01:04:09;5.38;;;3.05;;
38162;SDS011;23977;53.078;18.248;2023-08-01T01:06:44;4.85;;;2.80;;
38162;SDS011;23977;53.078;18.248;2023-08-01T01:09:16;5.38;;;3.00;;
38162;SDS011;23977;53.078;18.248;2023-08-01T01:11:43;5.00;;;2.83;;
38162;SDS011;23977;53.078;18.248;2023-08-01T01:14:09;5.15;;;2.67;;
38162;SDS011;23977;53.078;18.248;2023-08-01T01:16:35;7.05;;;3.03;;
38162;SDS011;23977;53.078;18.248;2023-08-01T01:19:00;6.05;;;2.90;;
38162;SDS011;23977;53.078;18.248;2023-08-01T01:21:26;5.25;;;2.80;;
38162;SDS011;23977;53.078;18.248;2023-08-01T01:24:10;6.03;;;2.80;;
38162;SDS011;23977;53.078;18.248;2023-08-01T01:26:40;6.78;;;3.10;;
38162;SDS011;23977;53.078;18.248;2023-08-01T01:29:06;5.63;;;2.70;;
38162;SDS011;23977;53.078;18.248;2023-08-01T01:31:34;6.13;;;3.00;;
38162;SDS011;23977;53.078;18.248;2023-08-01T01:33:59;4.97;;;2.90;;
38162;SDS011;23977;53.078;18.248;2023-08-01T01:36:26;4.93;;;2.83;;
38162;SDS011;23977;53.078;18.248;2023-08-01T01:38:51;6.82;;;2.90;;
38162;SDS011;23977;53.078;18.248;2023-08-01T01:41:17;7.47;;;2.90;;
38162;SDS011;23977;53.078;18.248;2023-08-01T01:43:42;5.57;;;2.85;;
38162;SDS011;23977;53.078;18.248;2023-08-01T01:46:10;4.90;;;2.95;;
38162;SDS011;23977;53.078;18.248;2023-08-01T01:48:35;6.25;;;3.38;;
38162;SDS011;23977;53.078;18.248;2023-08-01T01:51:01;6.25;;;2.97;;
38162;SDS011;23977;53.078;18.248;2023-08-01T01:53:26;4.90;;;2.80;;
38162;SDS011;23977;53.078;18.248;2023-08-01T01:55:52;4.85;;;2.90;;
38162;SDS011;23977;53.078;18.248;2023-08-01T01:58:18;5.80;;;3.10;;
38162;SDS011;23977;53.078;18.248;2023-08-01T02:00:44;4.82;;;2.80;;
38162;SDS011;23977;53.078;18.248;2023-08-01T02:03:09;6.63;;;3.17;;
38162;SDS011;23977;53.078;18.248;2023-08-01T02:05:36;5.72;;;2.80;;
38162;SDS011;23977;53.078;18.248;2023-08-01T02:08:02;13.43;;;2.97;;
38162;SDS011;23977;53.078;18.248;2023-08-01T02:10:30;4.53;;;2.80;;
38162;SDS011;23977;53.078;18.248;2023-08-01T02:12:55;6.10;;;3.22;;
38162;SDS011;23977;53.078;18.248;2023-08-01T02:15:21;7.38;;;3.30;;
38162;SDS011;23977;53.078;18.248;2023-08-01T02:17:46;6.68;;;3.25;;
38162;SDS011;23977;53.078;18.248;2023-08-01T02:20:12;6.15;;;3.22;;
38162;SDS011;23977;53.078;18.248;2023-08-01T02:22:38;6.10;;;3.25;;
38162;SDS011;23977;53.078;18.248;2023-08-01T02:25:03;6.68;;;3.50;;
38162;SDS011;23977;53.078;18.248;2023-08-01T02:27:29;6.22;;;3.40;;
38162;SDS011;23977;53.078;18.248;2023-08-01T02:29:55;6.25;;;3.30;;
38162;SDS011;23977;53.078;18.248;2023-08-01T02:32:20;6.10;;;3.03;;
38162;SDS011;23977;53.078;18.248;2023-08-01T02:34:46;9.48;;;3.20;;
38162;SDS011;23977;53.078;18.248;2023-08-01T02:37:12;7.00;;;3.47;;
38162;SDS011;23977;53.078;18.248;2023-08-01T02:39:38;6.18;;;3.35;;
38162;SDS011;23977;53.078;18.248;2023-08-01T02:42:03;5.72;;;3.13;;
38162;SDS011;23977;53.078;18.248;2023-08-01T02:44:29;5.85;;;3.30;;
38162;SDS011;23977;53.078;18.248;2023-08-01T02:46:54;6.78;;;3.38;;
38162;SDS011;23977;53.078;18.248;2023-08-01T02:49:20;5.72;;;3.28;;
38162;SDS011;23977;53.078;18.248;2023-08-01T02:51:46;6.25;;;3.40;;
38162;SDS011;23977;53.078;18.248;2023-08-01T02:54:11;6.05;;;3.05;;
38162;SDS011;23977;53.078;18.248;2023-08-01T02:56:37;6.32;;;3.50;;
38162;SDS011;23977;53.078;18.248;2023-08-01T02:59:07;6.20;;;3.10;;
38162;SDS011;23977;53.078;18.248;2023-08-01T03:01:36;7.10;;;3.38;;
38162;SDS011;23977;53.078;18.248;2023-08-01T03:04:03;6.68;;;3.38;;
38162;SDS011;23977;53.078;18.248;2023-08-01T03:06:30;5.18;;;2.92;;
38162;SDS011;23977;53.078;18.248;2023-08-01T03:08:58;6.68;;;3.08;;
38162;SDS011;23977;53.078;18.248;2023-08-01T03:11:25;5.60;;;3.28;;
38162;SDS011;23977;53.078;18.248;2023-08-01T03:13:51;5.38;;;3.20;;
38162;SDS011;23977;53.078;18.248;2023-08-01T03:16:17;6.55;;;3.45;;
38162;SDS011;23977;53.078;18.248;2023-08-01T03:18:43;6.05;;;3.40;;
38162;SDS011;23977;53.078;18.248;2023-08-01T03:21:09;4.93;;;3.10;;
38162;SDS011;23977;53.078;18.248;2023-08-01T03:23:35;6.93;;;3.20;;
38162;SDS011;23977;53.078;18.248;2023-08-01T03:26:00;6.53;;;3.72;;
38162;SDS011;23977;53.078;18.248;2023-08-01T03:28:26;5.78;;;3.45;;
38162;SDS011;23977;53.078;18.248;2023-08-01T03:30:52;9.77;;;3.35;;
38162;SDS011;23977;53.078;18.248;2023-08-01T03:33:22;6.65;;;3.22;;
38162;SDS011;23977;53.078;18.248;2023-08-01T03:35:47;7.05;;;3.45;;
38162;SDS011;23977;53.078;18.248;2023-08-01T03:38:13;6.57;;;3.60;;
38162;SDS011;23977;53.078;18.248;2023-08-01T03:40:39;7.80;;;3.50;;
38162;SDS011;23977;53.078;18.248;2023-08-01T03:43:04;5.28;;;3.33;;
38162;SDS011;23977;53.078;18.248;2023-08-01T03:45:31;7.47;;;3.47;;
38162;SDS011;23977;53.078;18.248;2023-08-01T03:47:57;7.43;;;3.70;;
38162;SDS011;23977;53.078;18.248;2023-08-01T03:50:23;6.75;;;3.78;;
38162;SDS011;23977;53.078;18.248;2023-08-01T03:52:48;6.65;;;3.60;;
38162;SDS011;23977;53.078;18.248;2023-08-01T03:55:14;7.45;;;3.95;;
38162;SDS011;23977;53.078;18.248;2023-08-01T03:57:40;9.75;;;3.72;;
38162;SDS011;23977;53.078;18.248;2023-08-01T04:00:08;7.30;;;3.78;;
38162;SDS011;23977;53.078;18.248;2023-08-01T04:02:39;6.25;;;3.55;;
38162;SDS011;23977;53.078;18.248;2023-08-01T04:05:06;8.65;;;3.78;;
38162;SDS011;23977;53.078;18.248;2023-08-01T04:07:32;8.45;;;3.90;;
38162;SDS011;23977;53.078;18.248;2023-08-01T04:09:57;6.50;;;3.75;;
38162;SDS011;23977;53.078;18.248;2023-08-01T04:12:23;9.23;;;3.70;;
38162;SDS011;23977;53.078;18.248;2023-08-01T04:14:49;6.18;;;3.45;;
38162;SDS011;23977;53.078;18.248;2023-08-01T04:17:14;7.15;;;3.50;;
38162;SDS011;23977;53.078;18.248;2023-08-01T04:19:40;8.93;;;3.80;;
38162;SDS011;23977;53.078;18.248;2023-08-01T04:22:05;7.70;;;3.67;;
38162;SDS011;23977;53.078;18.248;2023-08-01T04:24:31;7.55;;;3.60;;
38162;SDS011;23977;53.078;18.248;2023-08-01T04:26:57;6.55;;;3.53;;
38162;SDS011;23977;53.078;18.248;2023-08-01T04:29:22;7.75;;;3.60;;
38162;SDS011;23977;53.078;18.248;2023-08-01T04:31:48;6.60;;;3.50;;
38162;SDS011;23977;53.078;18.248;2023-08-01T04:34:13;5.47;;;3.40;;
38162;SDS011;23977;53.078;18.248;2023-08-01T04:36:39;6.03;;;3.60;;
38162;SDS011;23977;53.078;18.248;2023-08-01T04:39:04;5.45;;;3.42;;
38162;SDS011;23977;53.078;18.248;2023-08-01T04:41:31;6.40;;;3.50;;
38162;SDS011;23977;53.078;18.248;2023-08-01T04:43:56;6.70;;;3.70;;
38162;SDS011;23977;53.078;18.248;2023-08-01T04:46:22;8.30;;;3.67;;
38162;SDS011;23977;53.078;18.248;2023-08-01T04:48:48;5.68;;;3.33;;
38162;SDS011;23977;53.078;18.248;2023-08-01T04:51:13;6.30;;;3.55;;
38162;SDS011;23977;53.078;18.248;2023-08-01T04:53:39;8.73;;;3.50;;
38162;SDS011;23977;53.078;18.248;2023-08-01T04:56:05;7.38;;;3.78;;
38162;SDS011;23977;53.078;18.248;2023-08-01T04:58:30;6.13;;;3.60;;
38162;SDS011;23977;53.078;18.248;2023-08-01T05:00:56;8.27;;;3.75;;
38162;SDS011;23977;53.078;18.248;2023-08-01T05:03:21;7.68;;;3.78;;
38162;SDS011;23977;53.078;18.248;2023-08-01T05:05:47;6.78;;;3.83;;
38162;SDS011;23977;53.078;18.248;2023-08-01T05:08:12;7.05;;;4.10;;
38162;SDS011;23977;53.078;18.248;2023-08-01T05:10:38;7.75;;;3.85;;
38162;SDS011;23977;53.078;18.248;2023-08-01T05:13:04;8.35;;;4.22;;
38162;SDS011;23977;53.078;18.248;2023-08-01T05:15:29;8.88;;;4.55;;
38162;SDS011;23977;53.078;18.248;2023-08-01T05:17:55;8.48;;;4.50;;
38162;SDS011;23977;53.078;18.248;2023-08-01T05:20:21;7.15;;;4.05;;
38162;SDS011;23977;53.078;18.248;2023-08-01T05:22:47;8.60;;;4.40;;
38162;SDS011;23977;53.078;18.248;2023-08-01T05:25:12;8.00;;;4.30;;
38162;SDS011;23977;53.078;18.248;2023-08-01T05:27:38;11.05;;;4.57;;
38162;SDS011;23977;53.078;18.248;2023-08-01T05:30:04;9.60;;;4.45;;
38162;SDS011;23977;53.078;18.248;2023-08-01T05:32:29;8.85;;;4.35;;
38162;SDS011;23977;53.078;18.248;2023-08-01T05:34:55;9.15;;;4.50;;
38162;SDS011;23977;53.078;18.248;2023-08-01T05:37:21;11.68;;;5.22;;
38162;SDS011;23977;53.078;18.248;2023-08-01T05:39:46;13.25;;;5.20;;
38162;SDS011;23977;53.078;18.248;2023-08-01T05:42:12;9.02;;;4.95;;
38162;SDS011;23977;53.078;18.248;2023-08-01T05:44:38;9.23;;;5.03;;
38162;SDS011;23977;53.078;18.248;2023-08-01T05:47:03;11.00;;;5.15;;
38162;SDS011;23977;53.078;18.248;2023-08-01T05:49:29;11.52;;;5.40;;
38162;SDS011;23977;53.078;18.248;2023-08-01T05:51:55;12.50;;;5.20;;
38162;SDS011;23977;53.078;18.248;2023-08-01T05:54:20;8.13;;;4.75;;
38162;SDS011;23977;53.078;18.248;2023-08-01T05:56:46;14.45;;;5.80;;
38162;SDS011;23977;53.078;18.248;2023-08-01T05:59:12;13.70;;;5.38;;
38162;SDS011;23977;53.078;18.248;2023-08-01T06:01:37;26.40;;;7.10;;
38162;SDS011;23977;53.078;18.248;2023-08-01T06:04:03;8.27;;;4.47;;
38162;SDS011;23977;53.078;18.248;2023-08-01T06:06:29;7.90;;;4.60;;
38162;SDS011;23977;53.078;18.248;2023-08-01T06:08:54;33.00;;;6.63;;
38162;SDS011;23977;53.078;18.248;2023-08-01T06:11:21;62.17;;;10.30;;
38162;SDS011;23977;53.078;18.248;2023-08-01T06:13:47;16.20;;;5.57;;
38162;SDS011;23977;53.078;18.248;2023-08-01T06:16:12;12.02;;;4.82;;
38162;SDS011;23977;53.078;18.248;2023-08-01T06:18:38;23.02;;;6.47;;
38162;SDS011;23977;53.078;18.248;2023-08-01T06:21:03;18.23;;;5.60;;
38162;SDS011;23977;53.078;18.248;2023-08-01T06:23:29;14.80;;;5.30;;
38162;SDS011;23977;53.078;18.248;2023-08-01T06:25:55;10.57;;;5.25;;
38162;SDS011;23977;53.078;18.248;2023-08-01T06:28:21;8.05;;;5.30;;
38162;SDS011;23977;53.078;18.248;2023-08-01T06:30:46;8.35;;;5.03;;
38162;SDS011;23977;53.078;18.248;2023-08-01T06:33:12;12.25;;;5.60;;
38162;SDS011;23977;53.078;18.248;2023-08-01T06:35:37;10.90;;;5.07;;
38162;SDS011;23977;53.078;18.248;2023-08-01T06:38:03;8.25;;;5.00;;
38162;SDS011;23977;53.078;18.248;2023-08-01T06:40:28;9.95;;;4.95;;
38162;SDS011;23977;53.078;18.248;2023-08-01T06:42:54;7.85;;;5.10;;
38162;SDS011;23977;53.078;18.248;2023-08-01T06:45:20;9.55;;;4.85;;
38162;SDS011;23977;53.078;18.248;2023-08-01T06:47:45;8.07;;;5.32;;
38162;SDS011;23977;53.078;18.248;2023-08-01T06:50:11;10.05;;;5.22;;
38162;SDS011;23977;53.078;18.248;2023-08-01T06:52:38;8.05;;;5.07;;
38162;SDS011;23977;53.078;18.248;2023-08-01T06:55:03;7.57;;;5.28;;
38162;SDS011;23977;53.078;18.248;2023-08-01T06:57:29;7.90;;;5.13;;
38162;SDS011;23977;53.078;18.248;2023-08-01T06:59:55;11.32;;;5.78;;
38162;SDS011;23977;53.078;18.248;2023-08-01T07:02:21;13.23;;;6.10;;
38162;SDS011;23977;53.078;18.248;2023-08-01T07:04:47;15.98;;;8.00;;
38162;SDS011;23977;53.078;18.248;2023-08-01T07:07:13;12.05;;;6.18;;
38162;SDS011;23977;53.078;18.248;2023-08-01T07:09:38;16.42;;;6.32;;
38162;SDS011;23977;53.078;18.248;2023-08-01T07:12:04;10.95;;;5.70;;
38162;SDS011;23977;53.078;18.248;2023-08-01T07:14:30;17.02;;;6.25;;
38162;SDS011;23977;53.078;18.248;2023-08-01T07:16:56;9.68;;;4.82;;
38162;SDS011;23977;53.078;18.248;2023-08-01T07:19:22;12.32;;;5.18;;
38162;SDS011;23977;53.078;18.248;2023-08-01T07:21:48;8.60;;;4.85;;
38162;SDS011;23977;53.078;18.248;2023-08-01T07:24:14;8.05;;;4.50;;
38162;SDS011;23977;53.078;18.248;2023-08-01T07:26:40;10.63;;;4.70;;
38162;SDS011;23977;53.078;18.248;2023-08-01T07:29:06;22.92;;;11.50;;
38162;SDS011;23977;53.078;18.248;2023-08-01T07:31:33;34.78;;;13.93;;
38162;SDS011;23977;53.078;18.248;2023-08-01T07:33:59;18.75;;;6.75;;
38162;SDS011;23977;53.078;18.248;2023-08-01T07:36:25;22.00;;;8.40;;
38162;SDS011;23977;53.078;18.248;2023-08-01T07:38:50;18.45;;;6.80;;
38162;SDS011;23977;53.078;18.248;2023-08-01T07:41:16;17.67;;;7.25;;
38162;SDS011;23977;53.078;18.248;2023-08-01T07:43:41;12.35;;;5.97;;
38162;SDS011;23977;53.078;18.248;2023-08-01T07:46:07;20.25;;;7.15;;
38162;SDS011;23977;53.078;18.248;2023-08-01T07:48:35;12.02;;;6.10;;
38162;SDS011;23977;53.078;18.248;2023-08-01T07:51:00;9.60;;;5.20;;
38162;SDS011;23977;53.078;18.248;2023-08-01T07:53:26;9.32;;;5.35;;
38162;SDS011;23977;53.078;18.248;2023-08-01T07:55:52;11.15;;;5.72;;
38162;SDS011;23977;53.078;18.248;2023-08-01T07:58:18;9.90;;;5.20;;
38162;SDS011;23977;53.078;18.248;2023-08-01T08:00:44;10.23;;;5.45;;
38162;SDS011;23977;53.078;18.248;2023-08-01T08:03:09;8.27;;;5.30;;
38162;SDS011;23977;53.078;18.248;2023-08-01T08:05:35;9.75;;;5.07;;
38162;SDS011;23977;53.078;18.248;2023-08-01T08:08:04;11.07;;;6.13;;
38162;SDS011;23977;53.078;18.248;2023-08-01T08:10:30;8.48;;;4.85;;
38162;SDS011;23977;53.078;18.248;2023-08-01T08:12:56;7.32;;;5.00;;
38162;SDS011;23977;53.078;18.248;2023-08-01T08:15:22;9.40;;;5.68;;
38162;SDS011;23977;53.078;18.248;2023-08-01T08:17:49;7.72;;;4.85;;
38162;SDS011;23977;53.078;18.248;2023-08-01T08:20:14;7.10;;;4.82;;
38162;SDS011;23977;53.078;18.248;2023-08-01T08:22:40;7.90;;;4.90;;
38162;SDS011;23977;53.078;18.248;2023-08-01T08:25:06;9.07;;;5.28;;
38162;SDS011;23977;53.078;18.248;2023-08-01T08:27:31;7.82;;;4.57;;
38162;SDS011;23977;53.078;18.248;2023-08-01T08:29:57;8.35;;;4.70;;
38162;SDS011;23977;53.078;18.248;2023-08-01T08:32:22;8.30;;;5.05;;
38162;SDS011;23977;53.078;18.248;2023-08-01T08:34:48;8.98;;;5.50;;
38162;SDS011;23977;53.078;18.248;2023-08-01T08:37:14;8.55;;;4.95;;
38162;SDS011;23977;53.078;18.248;2023-08-01T08:39:39;7.10;;;4.90;;
38162;SDS011;23977;53.078;18.248;2023-08-01T08:42:05;9.95;;;5.50;;
38162;SDS011;23977;53.078;18.248;2023-08-01T08:44:31;7.72;;;5.00;;
38162;SDS011;23977;53.078;18.248;2023-08-01T08:47:05;7.82;;;5.20;;
38162;SDS011;23977;53.078;18.248;2023-08-01T08:49:31;7.45;;;5.35;;
38162;SDS011;23977;53.078;18.248;2023-08-01T08:51:57;8.23;;;4.85;;
38162;SDS011;23977;53.078;18.248;2023-08-01T08:54:24;7.93;;;5.10;;
38162;SDS011;23977;53.078;18.248;2023-08-01T08:56:50;9.05;;;5.50;;
38162;SDS011;23977;53.078;18.248;2023-08-01T08:59:16;17.77;;;7.47;;
38162;SDS011;23977;53.078;18.248;2023-08-01T09:01:43;22.42;;;7.20;;
38162;SDS011;23977;53.078;18.248;2023-08-01T09:04:10;11.63;;;5.82;;
38162;SDS011;23977;53.078;18.248;2023-08-01T09:06:45;13.90;;;5.28;;
38162;SDS011;23977;53.078;18.248;2023-08-01T09:09:13;10.05;;;5.40;;
38162;SDS011;23977;53.078;18.248;2023-08-01T09:11:42;11.00;;;4.88;;
38162;SDS011;23977;53.078;18.248;2023-08-01T09:14:10;12.10;;;5.40;;
38162;SDS011;23977;53.078;18.248;2023-08-01T09:16:36;6.85;;;4.82;;
38162;SDS011;23977;53.078;18.248;2023-08-01T09:19:03;9.00;;;5.20;;
38162;SDS011;23977;53.078;18.248;2023-08-01T09:21:35;9.88;;;5.43;;
38162;SDS011;23977;53.078;18.248;2023-08-01T09:24:16;11.00;;;5.18;;
38162;SDS011;23977;53.078;18.248;2023-08-01T09:26:43;10.63;;;5.00;;
38162;SDS011;23977;53.078;18.248;2023-08-01T09:29:09;10.10;;;5.00;;
38162;SDS011;23977;53.078;18.248;2023-08-01T09:31:36;8.13;;;4.68;;
38162;SDS011;23977;53.078;18.248;2023-08-01T09:34:04;9.45;;;4.82;;
38162;SDS011;23977;53.078;18.248;2023-08-01T09:36:31;8.93;;;4.40;;
38162;SDS011;23977;53.078;18.248;2023-08-01T09:38:58;8.35;;;4.35;;
38162;SDS011;23977;53.078;18.248;2023-08-01T09:41:25;10.80;;;4.30;;
38162;SDS011;23977;53.078;18.248;2023-08-01T09:43:51;6.82;;;4.07;;
38162;SDS011;23977;53.078;18.248;2023-08-01T09:46:16;6.60;;;4.10;;
38162;SDS011;23977;53.078;18.248;2023-08-01T09:48:42;8.70;;;4.05;;
38162;SDS011;23977;53.078;18.248;2023-08-01T09:51:09;7.38;;;4.28;;
38162;SDS011;23977;53.078;18.248;2023-08-01T09:53:47;7.82;;;3.92;;
38162;SDS011;23977;53.078;18.248;2023-08-01T09:56:18;5.95;;;4.10;;
38162;SDS011;23977;53.078;18.248;2023-08-01T09:58:46;7.00;;;4.00;;
38162;SDS011;23977;53.078;18.248;2023-08-01T10:01:15;7.10;;;4.60;;
38162;SDS011;23977;53.078;18.248;2023-08-01T10:03:44;10.32;;;5.03;;
38162;SDS011;23977;53.078;18.248;2023-08-01T10:06:13;7.07;;;4.40;;
38162;SDS011;23977;53.078;18.248;2023-08-01T10:08:42;7.80;;;4.72;;
38162;SDS011;23977;53.078;18.248;2023-08-01T10:11:08;9.32;;;4.90;;
38162;SDS011;23977;53.078;18.248;2023-08-01T10:13:34;6.97;;;4.45;;
38162;SDS011;23977;53.078;18.248;2023-08-01T10:16:00;7.60;;;4.68;;
38162;SDS011;23977;53.078;18.248;2023-08-01T10:18:26;7.05;;;4.90;;
38162;SDS011;23977;53.078;18.248;2023-08-01T10:20:54;12.35;;;5.07;;
38162;SDS011;23977;53.078;18.248;2023-08-01T10:23:20;28.92;;;6.82;;
38162;SDS011;23977;53.078;18.248;2023-08-01T10:25:46;20.90;;;6.20;;
38162;SDS011;23977;53.078;18.248;2023-08-01T10:28:12;11.95;;;5.50;;
38162;SDS011;23977;53.078;18.248;2023-08-01T10:30:38;11.15;;;4.63;;
38162;SDS011;23977;53.078;18.248;2023-08-01T10:33:03;8.15;;;4.50;;
38162;SDS011;23977;53.078;18.248;2023-08-01T10:35:36;9.45;;;4.63;;
38162;SDS011;23977;53.078;18.248;2023-08-01T10:38:06;8.23;;;4.22;;
38162;SDS011;23977;53.078;18.248;2023-08-01T10:40:39;8.48;;;4.10;;
38162;SDS011;23977;53.078;18.248;2023-08-01T10:43:18;5.68;;;4.00;;
38162;SDS011;23977;53.078;18.248;2023-08-01T10:45:46;8.20;;;3.70;;
38162;SDS011;23977;53.078;18.248;2023-08-01T10:48:12;7.10;;;3.75;;
38162;SDS011;23977;53.078;18.248;2023-08-01T10:50:39;5.72;;;3.42;;
38162;SDS011;23977;53.078;18.248;2023-08-01T10:53:06;4.70;;;3.17;;
38162;SDS011;23977;53.078;18.248;2023-08-01T10:55:40;12.60;;;4.03;;
38162;SDS011;23977;53.078;18.248;2023-08-01T10:58:07;14.27;;;3.78;;
38162;SDS011;23977;53.078;18.248;2023-08-01T11:00:33;10.77;;;3.42;;
38162;SDS011;23977;53.078;18.248;2023-08-01T11:02:59;8.40;;;3.30;;
38162;SDS011;23977;53.078;18.248;2023-08-01T11:05:24;9.30;;;3.28;;
38162;SDS011;23977;53.078;18.248;2023-08-01T11:08:09;6.13;;;3.00;;
38162;SDS011;23977;53.078;18.248;2023-08-01T11:10:35;5.05;;;3.47;;
38162;SDS011;23977;53.078;18.248;2023-08-01T11:13:01;5.95;;;3.25;;
38162;SDS011;23977;53.078;18.248;2023-08-01T11:15:26;5.80;;;3.35;;
38162;SDS011;23977;53.078;18.248;2023-08-01T11:17:52;5.93;;;3.90;;
38162;SDS011;23977;53.078;18.248;2023-08-01T11:20:20;6.63;;;3.40;;
38162;SDS011;23977;53.078;18.248;2023-08-01T11:22:57;12.35;;;4.00;;
38162;SDS011;23977;53.078;18.248;2023-08-01T11:25:36;11.02;;;4.07;;
38162;SDS011;23977;53.078;18.248;2023-08-01T11:28:03;6.90;;;3.65;;
38162;SDS011;23977;53.078;18.248;2023-08-01T11:30:31;8.27;;;4.35;;
38162;SDS011;23977;53.078;18.248;2023-08-01T11:33:00;8.93;;;4.75;;
38162;SDS011;23977;53.078;18.248;2023-08-01T11:35:28;8.98;;;4.93;;
38162;SDS011;23977;53.078;18.248;2023-08-01T11:37:54;9.15;;;4.75;;
38162;SDS011;23977;53.078;18.248;2023-08-01T11:40:20;9.05;;;5.53;;
38162;SDS011;23977;53.078;18.248;2023-08-01T11:42:49;7.60;;;5.28;;
38162;SDS011;23977;53.078;18.248;2023-08-01T11:45:16;7.85;;;5.20;;
38162;SDS011;23977;53.078;18.248;2023-08-01T11:47:48;6.95;;;4.85;;
38162;SDS011;23977;53.078;18.248;2023-08-01T11:50:20;8.25;;;4.95;;
38162;SDS011;23977;53.078;18.248;2023-08-01T11:52:47;6.75;;;4.10;;
38162;SDS011;23977;53.078;18.248;2023-08-01T11:55:22;5.95;;;3.83;;
38162;SDS011;23977;53.078;18.248;2023-08-01T11:57:56;6.28;;;3.88;;
38162;SDS011;23977;53.078;18.248;2023-08-01T12:00:27;6.80;;;4.00;;
38162;SDS011;23977;53.078;18.248;2023-08-01T12:03:03;6.85;;;4.07;;
38162;SDS011;23977;53.078;18.248;2023-08-01T12:05:38;6.55;;;4.40;;
38162;SDS011;23977;53.078;18.248;2023-08-01T12:08:11;6.25;;;4.05;;
38162;SDS011;23977;53.078;18.248;2023-08-01T12:10:41;6.07;;;3.97;;
38162;SDS011;23977;53.078;18.248;2023-08-01T12:13:21;7.95;;;4.43;;
38162;SDS011;23977;53.078;18.248;2023-08-01T12:15:48;6.43;;;3.95;;
38162;SDS011;23977;53.078;18.248;2023-08-01T12:18:24;8.85;;;4.43;;
38162;SDS011;23977;53.078;18.248;2023-08-01T12:20:52;7.10;;;3.90;;
38162;SDS011;23977;53.078;18.248;2023-08-01T12:23:18;6.15;;;3.88;;
38162;SDS011;23977;53.078;18.248;2023-08-01T12:25:44;8.43;;;4.45;;
38162;SDS011;23977;53.078;18.248;2023-08-01T12:28:12;6.18;;;4.07;;
38162;SDS011;23977;53.078;18.248;2023-08-01T12:30:39;6.25;;;4.18;;
38162;SDS011;23977;53.078;18.248;2023-08-01T12:33:06;7.22;;;4.60;;
38162;SDS011;23977;53.078;18.248;2023-08-01T12:35:32;8.52;;;4.68;;
38162;SDS011;23977;53.078;18.248;2023-08-01T12:37:58;7.22;;;5.18;;
38162;SDS011;23977;53.078;18.248;2023-08-01T12:40:24;6.90;;;4.85;;
38162;SDS011;23977;53.078;18.248;2023-08-01T12:42:49;8.85;;;4.63;;
38162;SDS011;23977;53.078;18.248;2023-08-01T12:45:15;8.73;;;5.07;;
38162;SDS011;23977;53.078;18.248;2023-08-01T12:47:40;8.70;;;5.35;;
38162;SDS011;23977;53.078;18.248;2023-08-01T12:50:06;7.65;;;5.10;;
38162;SDS011;23977;53.078;18.248;2023-08-01T12:52:32;7.45;;;4.80;;
38162;SDS011;23977;53.078;18.248;2023-08-01T12:54:58;10.70;;;5.78;;
38162;SDS011;23977;53.078;18.248;2023-08-01T12:57:23;8.48;;;5.43;;
38162;SDS011;23977;53.078;18.248;2023-08-01T12:59:49;8.32;;;5.30;;
38162;SDS011;23977;53.078;18.248;2023-08-01T13:02:15;8.55;;;6.00;;
38162;SDS011;23977;53.078;18.248;2023-08-01T13:04:40;8.52;;;5.68;;
38162;SDS011;23977;53.078;18.248;2023-08-01T13:07:06;9.60;;;6.75;;
38162;SDS011;23977;53.078;18.248;2023-08-01T13:09:32;10.27;;;6.20;;
38162;SDS011;23977;53.078;18.248;2023-08-01T13:11:57;8.38;;;5.13;;
38162;SDS011;23977;53.078;18.248;2023-08-01T13:14:25;8.05;;;5.57;;
38162;SDS011;23977;53.078;18.248;2023-08-01T13:16:51;8.00;;;5.40;;
38162;SDS011;23977;53.078;18.248;2023-08-01T13:19:17;8.20;;;5.72;;
38162;SDS011;23977;53.078;18.248;2023-08-01T13:21:43;7.85;;;5.32;;
38162;SDS011;23977;53.078;18.248;2023-08-01T13:24:09;7.68;;;4.90;;
38162;SDS011;23977;53.078;18.248;2023-08-01T13:26:34;7.93;;;5.60;;
38162;SDS011;23977;53.078;18.248;2023-08-01T13:29:01;7.00;;;4.93;;
38162;SDS011;23977;53.078;18.248;2023-08-01T13:31:27;6.35;;;4.60;;
38162;SDS011;23977;53.078;18.248;2023-08-01T13:33:54;7.35;;;4.95;;
38162;SDS011;23977;53.078;18.248;2023-08-01T13:36:20;8.60;;;5.18;;
38162;SDS011;23977;53.078;18.248;2023-08-01T13:38:46;6.25;;;4.22;;
38162;SDS011;23977;53.078;18.248;2023-08-01T13:41:12;9.95;;;5.20;;
38162;SDS011;23977;53.078;18.248;2023-08-01T13:43:39;10.32;;;5.70;;
38162;SDS011;23977;53.078;18.248;2023-08-01T13:46:17;8.70;;;5.20;;
38162;SDS011;23977;53.078;18.248;2023-08-01T13:48:45;8.50;;;4.65;;
38162;SDS011;23977;53.078;18.248;2023-08-01T13:51:11;7.07;;;4.50;;
38162;SDS011;23977;53.078;18.248;2023-08-01T13:53:38;7.88;;;4.60;;
38162;SDS011;23977;53.078;18.248;2023-08-01T13:56:09;7.28;;;4.90;;
38162;SDS011;23977;53.078;18.248;2023-08-01T13:58:37;7.82;;;4.97;;
38162;SDS011;23977;53.078;18.248;2023-08-01T14:01:03;6.20;;;4.88;;
38162;SDS011;23977;53.078;18.248;2023-08-01T14:03:30;7.40;;;4.53;;
38162;SDS011;23977;53.078;18.248;2023-08-01T14:06:02;8.23;;;4.43;;
38162;SDS011;23977;53.078;18.248;2023-08-01T14:08:35;5.63;;;4.25;;
38162;SDS011;23977;53.078;18.248;2023-08-01T14:11:02;5.63;;;3.97;;
38162;SDS011;23977;53.078;18.248;2023-08-01T14:13:29;6.72;;;4.22;;
38162;SDS011;23977;53.078;18.248;2023-08-01T14:15:54;7.00;;;4.32;;
38162;SDS011;23977;53.078;18.248;2023-08-01T14:18:20;6.07;;;4.40;;
38162;SDS011;23977;53.078;18.248;2023-08-01T14:20:45;7.50;;;4.20;;
38162;SDS011;23977;53.078;18.248;2023-08-01T14:23:11;7.03;;;4.28;;
38162;SDS011;23977;53.078;18.248;2023-08-01T14:25:37;6.63;;;4.13;;
38162;SDS011;23977;53.078;18.248;2023-08-01T14:28:03;7.45;;;4.40;;